createdAt,value
2022-12-17T00:00:04.911Z,0
2022-12-17T00:01:08.096Z,0
2022-12-17T00:02:11.147Z,0
2022-12-17T00:03:14.481Z,0
2022-12-17T00:04:18.643Z,0
2022-12-17T00:05:23.361Z,0
2022-12-17T00:06:25.782Z,0
2022-12-17T00:07:28.281Z,0
2022-12-17T00:08:30.974Z,0
2022-12-17T00:09:33.744Z,0
2022-12-17T00:10:37.134Z,0
2022-12-17T00:11:40.109Z,0
2022-12-17T00:12:42.887Z,0
2022-12-17T00:13:45.762Z,0
2022-12-17T00:14:48.622Z,0
2022-12-17T00:15:51.150Z,0
2022-12-17T00:16:54.340Z,0
2022-12-17T00:17:59.050Z,0
2022-12-17T00:19:01.590Z,0
2022-12-17T00:20:03.812Z,0
2022-12-17T00:21:07.941Z,0
2022-12-17T00:22:12.072Z,0
2022-12-17T00:23:15.124Z,0
2022-12-17T00:24:18.490Z,0
2022-12-17T00:25:21.221Z,0
2022-12-17T00:26:24.034Z,0
2022-12-17T00:27:26.178Z,0
2022-12-17T00:28:28.963Z,0
2022-12-17T00:29:31.655Z,0
2022-12-17T00:30:34.367Z,0
2022-12-17T00:31:37.129Z,0
2022-12-17T00:32:40.435Z,0
2022-12-17T00:33:43.406Z,0
2022-12-17T00:34:46.912Z,0
2022-12-17T00:35:49.328Z,0
2022-12-17T00:36:53.491Z,0
2022-12-17T00:37:58.274Z,0
2022-12-17T00:39:01.080Z,0
2022-12-17T00:40:03.779Z,0
2022-12-17T00:41:05.935Z,0
2022-12-17T00:42:08.774Z,0
2022-12-17T00:43:12.510Z,0
2022-12-17T00:44:15.215Z,0
2022-12-17T00:45:18.075Z,0
2022-12-17T00:46:20.584Z,0
2022-12-17T00:47:23.591Z,0
2022-12-17T00:48:26.674Z,0
2022-12-17T00:49:30.003Z,0
2022-12-17T00:50:32.425Z,0
2022-12-17T00:51:35.557Z,0
2022-12-17T00:52:39.769Z,0
2022-12-17T00:53:43.201Z,0
2022-12-17T00:54:46.534Z,0
2022-12-17T00:55:49.364Z,0
2022-12-17T00:56:51.780Z,0
2022-12-17T00:57:58.298Z,0
2022-12-17T00:59:01.148Z,0
2022-12-17T01:00:04.061Z,0
2022-12-17T01:01:07.381Z,0
2022-12-17T01:02:10.599Z,0
2022-12-17T01:03:15.195Z,0
2022-12-17T01:04:19.262Z,0
2022-12-17T01:05:22.957Z,0
2022-12-17T01:06:25.805Z,0
2022-12-17T01:07:28.666Z,0
2022-12-17T01:08:32.547Z,0
2022-12-17T01:09:35.869Z,0
2022-12-17T01:10:37.874Z,0
2022-12-17T01:11:40.854Z,0
2022-12-17T01:12:43.358Z,0
2022-12-17T01:13:46.415Z,0
2022-12-17T01:14:49.767Z,0
2022-12-17T01:15:53.267Z,0
2022-12-17T01:17:00.369Z,0
2022-12-17T01:18:02.838Z,0
2022-12-17T01:19:06.190Z,0
2022-12-17T01:20:09.256Z,0
2022-12-17T01:21:11.955Z,0
2022-12-17T01:22:14.729Z,0
2022-12-17T01:23:17.699Z,0
2022-12-17T01:24:21.902Z,0
2022-12-17T01:25:24.336Z,0
2022-12-17T01:26:27.191Z,0
2022-12-17T01:27:29.687Z,0
2022-12-17T01:28:33.040Z,0
2022-12-17T01:29:35.890Z,0
2022-12-17T01:30:38.859Z,0
2022-12-17T01:31:42.088Z,0
2022-12-17T01:32:45.286Z,0
2022-12-17T01:33:47.970Z,0
2022-12-17T01:34:50.740Z,0
2022-12-17T01:35:54.073Z,0
2022-12-17T01:36:58.421Z,0
2022-12-17T01:38:01.473Z,0
2022-12-17T01:39:04.844Z,0
2022-12-17T01:40:09.320Z,0
2022-12-17T01:41:12.657Z,0
2022-12-17T01:42:15.145Z,0
2022-12-17T01:43:17.467Z,0
2022-12-17T01:44:19.962Z,0
2022-12-17T01:45:22.771Z,0
2022-12-17T01:46:26.289Z,0
2022-12-17T01:47:29.264Z,0
2022-12-17T01:48:32.122Z,0
2022-12-17T01:49:35.447Z,0
2022-12-17T01:50:37.754Z,0
2022-12-17T01:51:40.805Z,0
2022-12-17T01:52:43.311Z,0
2022-12-17T01:53:47.011Z,0
2022-12-17T01:54:49.983Z,0
2022-12-17T01:55:53.827Z,0
2022-12-17T01:56:57.142Z,0
2022-12-17T01:57:59.964Z,0
2022-12-17T01:59:03.009Z,0
2022-12-17T02:00:05.148Z,0
2022-12-17T02:01:07.755Z,0
2022-12-17T02:02:12.139Z,0
2022-12-17T02:03:16.720Z,0
2022-12-17T02:04:20.081Z,0
2022-12-17T02:05:22.924Z,0
2022-12-17T02:06:26.515Z,0
2022-12-17T02:07:29.390Z,0
2022-12-17T02:08:32.537Z,0
2022-12-17T02:09:34.955Z,0
2022-12-17T02:10:38.398Z,0
2022-12-17T02:11:42.500Z,0
2022-12-17T02:12:45.905Z,0
2022-12-17T02:13:48.972Z,0
2022-12-17T02:14:51.398Z,0
2022-12-17T02:15:54.829Z,0
2022-12-17T02:16:57.803Z,0
2022-12-17T02:18:00.497Z,0
2022-12-17T02:19:03.906Z,0
2022-12-17T02:20:06.954Z,0
2022-12-17T02:21:09.650Z,0
2022-12-17T02:22:13.255Z,0
2022-12-17T02:23:16.240Z,0
2022-12-17T02:24:19.287Z,0
2022-12-17T02:25:21.788Z,0
2022-12-17T02:26:25.192Z,0
2022-12-17T02:27:29.090Z,0
2022-12-17T02:28:32.600Z,0
2022-12-17T02:29:35.094Z,0
2022-12-17T02:30:37.899Z,0
2022-12-17T02:31:40.374Z,0
2022-12-17T02:32:43.891Z,0
2022-12-17T02:33:46.674Z,0
2022-12-17T02:34:49.393Z,0
2022-12-17T02:35:52.160Z,0
2022-12-17T02:36:54.653Z,0
2022-12-17T02:37:57.435Z,0
2022-12-17T02:39:00.786Z,0
2022-12-17T02:40:03.709Z,0
2022-12-17T02:41:07.145Z,0
2022-12-17T02:42:10.534Z,0
2022-12-17T02:43:14.442Z,0
2022-12-17T02:44:17.874Z,0
2022-12-17T02:45:20.997Z,0
2022-12-17T02:46:23.169Z,0
2022-12-17T02:47:26.010Z,0
2022-12-17T02:48:28.818Z,0
2022-12-17T02:49:31.751Z,0
2022-12-17T02:50:34.512Z,0
2022-12-17T02:51:37.498Z,0
2022-12-17T02:52:40.192Z,0
2022-12-17T02:53:43.520Z,0
2022-12-17T02:54:46.879Z,0
2022-12-17T02:55:49.941Z,0
2022-12-17T02:56:52.518Z,0
2022-12-17T02:57:56.504Z,0
2022-12-17T02:59:00.352Z,0
2022-12-17T03:00:02.783Z,0
2022-12-17T03:01:05.526Z,0
2022-12-17T03:02:09.213Z,0
2022-12-17T03:03:13.495Z,0
2022-12-17T03:04:16.665Z,0
2022-12-17T03:05:43.204Z,0
2022-12-17T03:06:48.209Z,0
2022-12-17T03:07:51.629Z,0
2022-12-17T03:08:55.025Z,0
2022-12-17T03:09:57.805Z,0
2022-12-17T03:11:00.936Z,0
2022-12-17T03:12:04.656Z,0
2022-12-17T03:13:08.108Z,0
2022-12-17T03:14:12.010Z,0
2022-12-17T03:15:15.328Z,0
2022-12-17T03:16:17.767Z,0
2022-12-17T03:17:20.837Z,0
2022-12-17T03:18:23.540Z,0
2022-12-17T03:19:26.315Z,0
2022-12-17T03:20:29.028Z,0
2022-12-17T03:21:30.972Z,0
2022-12-17T03:22:33.549Z,0
2022-12-17T03:23:36.290Z,0
2022-12-17T03:24:41.204Z,0
2022-12-17T03:25:44.268Z,0
2022-12-17T03:26:47.594Z,0
2022-12-17T03:27:51.304Z,0
2022-12-17T03:28:54.793Z,0
2022-12-17T03:29:59.240Z,0
2022-12-17T03:31:02.336Z,0
2022-12-17T03:32:05.757Z,0
2022-12-17T03:33:08.060Z,0
2022-12-17T03:34:10.911Z,0
2022-12-17T03:35:13.896Z,0
2022-12-17T03:36:17.613Z,0
2022-12-17T03:37:19.819Z,0
2022-12-17T03:38:22.292Z,0
2022-12-17T03:39:25.368Z,0
2022-12-17T03:40:28.221Z,0
2022-12-17T03:41:31.180Z,0
2022-12-17T03:42:34.432Z,0
2022-12-17T03:43:37.613Z,0
2022-12-17T03:44:41.502Z,0
2022-12-17T03:45:45.403Z,0
2022-12-17T03:46:48.794Z,0
2022-12-17T03:47:51.014Z,0
2022-12-17T03:48:54.224Z,0
2022-12-17T03:49:57.002Z,0
2022-12-17T03:50:59.861Z,0
2022-12-17T03:52:02.633Z,0
2022-12-17T03:53:05.687Z,0
2022-12-17T03:54:08.457Z,0
2022-12-17T03:55:11.912Z,0
2022-12-17T03:56:14.448Z,0
2022-12-17T03:57:17.229Z,0
2022-12-17T03:58:19.484Z,0
2022-12-17T03:59:22.448Z,0
2022-12-17T04:00:25.700Z,0
2022-12-17T04:01:30.016Z,0
2022-12-17T04:02:34.503Z,0
2022-12-17T04:03:39.564Z,0
2022-12-17T04:04:43.472Z,0
2022-12-17T04:05:46.601Z,0
2022-12-17T04:06:49.919Z,0
2022-12-17T04:07:53.280Z,0
2022-12-17T04:08:55.779Z,0
2022-12-17T04:09:59.185Z,0
2022-12-17T04:11:02.932Z,0
2022-12-17T04:12:06.643Z,0
2022-12-17T04:13:09.716Z,0
2022-12-17T04:14:12.438Z,0
2022-12-17T04:15:15.213Z,0
2022-12-17T04:16:16.969Z,0
2022-12-17T04:17:20.975Z,0
2022-12-17T04:18:24.451Z,0
2022-12-17T04:19:28.068Z,0
2022-12-17T04:20:31.109Z,0
2022-12-17T04:21:34.439Z,0
2022-12-17T04:22:36.938Z,0
2022-12-17T04:23:40.262Z,0
2022-12-17T04:24:43.374Z,0
2022-12-17T04:25:45.868Z,0
2022-12-17T04:26:49.200Z,0
2022-12-17T04:27:52.917Z,0
2022-12-17T04:28:54.864Z,0
2022-12-17T04:29:57.082Z,0
2022-12-17T04:30:59.899Z,0
2022-12-17T04:32:02.344Z,0
2022-12-17T04:33:06.468Z,0
2022-12-17T04:34:09.163Z,0
2022-12-17T04:35:12.282Z,0
2022-12-17T04:36:14.971Z,0
2022-12-17T04:37:17.675Z,0
2022-12-17T04:38:20.373Z,0
2022-12-17T04:39:23.063Z,0
2022-12-17T04:40:25.373Z,0
2022-12-17T04:41:28.197Z,0
2022-12-17T04:42:30.962Z,0
2022-12-17T04:43:33.644Z,0
2022-12-17T04:44:38.647Z,0
2022-12-17T04:45:41.643Z,0
2022-12-17T04:46:44.545Z,0
2022-12-17T04:47:47.606Z,0
2022-12-17T04:48:51.722Z,0
2022-12-17T04:49:55.047Z,0
2022-12-17T04:50:57.807Z,0
2022-12-17T04:52:00.664Z,0
2022-12-17T04:53:03.495Z,0
2022-12-17T04:54:06.351Z,0
2022-12-17T04:55:10.021Z,0
2022-12-17T04:56:12.501Z,0
2022-12-17T04:57:15.158Z,0
2022-12-17T04:58:17.973Z,0
2022-12-17T04:59:19.834Z,0
2022-12-17T05:00:22.901Z,0
2022-12-17T05:01:25.804Z,0
2022-12-17T05:02:29.900Z,0
2022-12-17T05:03:34.422Z,0
2022-12-17T05:04:42.338Z,0
2022-12-17T05:05:45.588Z,0
2022-12-17T05:06:48.111Z,0
2022-12-17T05:07:51.787Z,0
2022-12-17T05:08:54.491Z,0
2022-12-17T05:09:57.340Z,0
2022-12-17T05:11:00.693Z,0
2022-12-17T05:12:04.128Z,0
2022-12-17T05:13:06.918Z,0
2022-12-17T05:14:09.210Z,0
2022-12-17T05:15:12.618Z,0
2022-12-17T05:16:15.460Z,0
2022-12-17T05:17:17.834Z,0
2022-12-17T05:18:20.404Z,0
2022-12-17T05:19:23.105Z,0
2022-12-17T05:20:27.279Z,0
2022-12-17T05:21:33.266Z,0
2022-12-17T05:22:35.743Z,0
2022-12-17T05:23:38.665Z,0
2022-12-17T05:24:41.610Z,0
2022-12-17T05:25:44.670Z,0
2022-12-17T05:26:46.959Z,0
2022-12-17T05:27:49.730Z,0
2022-12-17T05:28:52.413Z,0
2022-12-17T05:29:55.766Z,0
2022-12-17T05:30:58.561Z,0
2022-12-17T05:32:01.723Z,0
2022-12-17T05:33:04.985Z,0
2022-12-17T05:34:07.974Z,0
2022-12-17T05:35:11.803Z,0
2022-12-17T05:36:16.049Z,0
2022-12-17T05:37:19.543Z,0
2022-12-17T05:38:22.585Z,0
2022-12-17T05:39:25.992Z,0
2022-12-17T05:40:28.795Z,0
2022-12-17T05:41:32.151Z,0
2022-12-17T05:42:34.861Z,0
2022-12-17T05:43:38.140Z,0
2022-12-17T05:44:41.882Z,0
2022-12-17T05:45:44.735Z,0
2022-12-17T05:46:47.317Z,0
2022-12-17T05:47:50.557Z,0
2022-12-17T05:48:53.703Z,0
2022-12-17T05:49:56.748Z,0
2022-12-17T05:50:59.442Z,0
2022-12-17T05:52:03.669Z,0
2022-12-17T05:53:07.297Z,0
2022-12-17T05:54:09.873Z,0
2022-12-17T05:55:12.574Z,0
2022-12-17T05:56:15.926Z,0
2022-12-17T05:57:18.702Z,0
2022-12-17T05:58:21.531Z,0
2022-12-17T05:59:24.969Z,0
2022-12-17T06:00:27.742Z,0
2022-12-17T06:01:30.199Z,0
2022-12-17T06:02:33.920Z,0
2022-12-17T06:03:38.106Z,0
2022-12-17T06:04:44.634Z,0
2022-12-17T06:05:47.977Z,0
2022-12-17T06:06:51.118Z,0
2022-12-17T06:07:57.239Z,0
2022-12-17T06:08:59.932Z,0
2022-12-17T06:10:02.516Z,0
2022-12-17T06:11:05.334Z,0
2022-12-17T06:12:08.141Z,0
2022-12-17T06:13:10.924Z,0
2022-12-17T06:14:13.418Z,0
2022-12-17T06:15:16.467Z,0
2022-12-17T06:16:19.942Z,0
2022-12-17T06:17:23.971Z,0
2022-12-17T06:18:27.025Z,0
2022-12-17T06:19:29.528Z,0
2022-12-17T06:20:32.931Z,0
2022-12-17T06:21:35.525Z,0
2022-12-17T06:22:38.376Z,0
2022-12-17T06:23:42.546Z,0
2022-12-17T06:24:46.208Z,0
2022-12-17T06:25:48.768Z,0
2022-12-17T06:26:51.811Z,0
2022-12-17T06:27:54.665Z,0
2022-12-17T06:28:57.717Z,0
2022-12-17T06:30:01.147Z,0
2022-12-17T06:31:04.026Z,0
2022-12-17T06:32:06.994Z,0
2022-12-17T06:33:09.693Z,0
2022-12-17T06:34:12.541Z,0
2022-12-17T06:35:14.965Z,0
2022-12-17T06:36:22.326Z,0
2022-12-17T06:37:25.803Z,4
2022-12-17T06:38:29.051Z,4
2022-12-17T06:39:33.232Z,0
2022-12-17T06:40:36.581Z,0
2022-12-17T06:41:39.348Z,4
2022-12-17T06:42:41.985Z,4
2022-12-17T06:43:45.698Z,4
2022-12-17T06:44:48.568Z,4
2022-12-17T06:45:51.441Z,4
2022-12-17T06:46:54.585Z,8
2022-12-17T06:47:59.348Z,4
2022-12-17T06:49:02.389Z,8
2022-12-17T06:50:05.756Z,8
2022-12-17T06:51:08.840Z,8
2022-12-17T06:52:11.908Z,12
2022-12-17T06:53:15.339Z,12
2022-12-17T06:54:17.764Z,16
2022-12-17T06:55:21.893Z,16
2022-12-17T06:56:24.334Z,16
2022-12-17T06:57:27.201Z,20
2022-12-17T06:58:30.551Z,24
2022-12-17T06:59:33.631Z,24
2022-12-17T07:00:36.611Z,32
2022-12-17T07:01:39.278Z,32
2022-12-17T07:02:43.493Z,40
2022-12-17T07:03:46.527Z,44
2022-12-17T07:04:49.344Z,48
2022-12-17T07:05:51.489Z,52
2022-12-17T07:06:54.541Z,60
2022-12-17T07:07:57.696Z,68
2022-12-17T07:09:00.119Z,76
2022-12-17T07:10:03.214Z,84
2022-12-17T07:11:17.077Z,92
2022-12-17T07:12:20.214Z,104
2022-12-17T07:13:23.546Z,116
2022-12-17T07:14:26.605Z,128
2022-12-17T07:15:29.311Z,144
2022-12-17T07:16:32.335Z,156
2022-12-17T07:17:36.292Z,168
2022-12-17T07:18:38.789Z,184
2022-12-17T07:19:42.138Z,196
2022-12-17T07:20:45.496Z,212
2022-12-17T07:21:47.988Z,236
2022-12-17T07:22:50.563Z,260
2022-12-17T07:23:53.896Z,292
2022-12-17T07:24:56.954Z,324
2022-12-17T07:26:00.010Z,356
2022-12-17T07:27:04.587Z,396
2022-12-17T07:28:07.932Z,440
2022-12-17T07:29:10.907Z,484
2022-12-17T07:30:13.707Z,524
2022-12-17T07:31:16.319Z,564
2022-12-17T07:32:19.059Z,592
2022-12-17T07:33:22.699Z,624
2022-12-17T07:34:26.032Z,660
2022-12-17T07:35:28.803Z,696
2022-12-17T07:36:32.215Z,732
2022-12-17T07:37:34.359Z,764
2022-12-17T07:38:37.482Z,800
2022-12-17T07:39:40.592Z,832
2022-12-17T07:40:43.295Z,860
2022-12-17T07:41:46.342Z,884
2022-12-17T07:42:50.463Z,916
2022-12-17T07:43:53.659Z,968
2022-12-17T07:44:56.523Z,1040
2022-12-17T07:45:59.638Z,1120
2022-12-17T07:47:03.008Z,1204
2022-12-17T07:48:06.404Z,1272
2022-12-17T07:49:09.376Z,1360
2022-12-17T07:50:13.393Z,1464
2022-12-17T07:51:15.893Z,1616
2022-12-17T07:52:18.666Z,1724
2022-12-17T07:53:21.441Z,1720
2022-12-17T07:54:24.876Z,1772
2022-12-17T07:55:27.933Z,1848
2022-12-17T07:56:31.163Z,1904
2022-12-17T07:57:34.207Z,1960
2022-12-17T07:58:38.387Z,2036
2022-12-17T07:59:41.426Z,2128
2022-12-17T08:00:49.058Z,2236
2022-12-17T08:01:52.718Z,2352
2022-12-17T08:02:56.806Z,2448
2022-12-17T08:04:00.385Z,2556
2022-12-17T08:05:03.456Z,2672
2022-12-17T08:06:06.412Z,2804
2022-12-17T08:07:12.245Z,2948
2022-12-17T08:08:16.822Z,3108
2022-12-17T08:09:19.861Z,3252
2022-12-17T08:10:22.636Z,3400
2022-12-17T08:11:25.483Z,3528
2022-12-17T08:12:28.636Z,3660
2022-12-17T08:13:31.400Z,3796
2022-12-17T08:14:36.564Z,3936
2022-12-17T08:15:38.995Z,4068
2022-12-17T08:16:42.155Z,4192
2022-12-17T08:17:45.224Z,4304
2022-12-17T08:18:49.264Z,4432
2022-12-17T08:19:52.039Z,4572
2022-12-17T08:20:54.814Z,4688
2022-12-17T08:21:57.889Z,4760
2022-12-17T08:23:00.717Z,4800
2022-12-17T08:24:04.151Z,4828
2022-12-17T08:25:07.543Z,4884
2022-12-17T08:26:10.679Z,4796
2022-12-17T08:27:14.385Z,4824
2022-12-17T08:28:41.494Z,4836
2022-12-17T08:29:54.852Z,4796
2022-12-17T08:30:59.371Z,4780
2022-12-17T08:32:03.003Z,4828
2022-12-17T08:33:05.572Z,4944
2022-12-17T08:34:08.520Z,5120
2022-12-17T08:35:11.591Z,5336
2022-12-17T08:36:14.058Z,5560
2022-12-17T08:37:17.308Z,5744
2022-12-17T08:38:19.862Z,5836
2022-12-17T08:39:22.645Z,5900
2022-12-17T08:40:25.492Z,5976
2022-12-17T08:41:27.706Z,6000
2022-12-17T08:42:30.858Z,6012
2022-12-17T08:43:33.433Z,6080
2022-12-17T08:44:39.145Z,6132
2022-12-17T08:45:43.397Z,6192
2022-12-17T08:46:46.239Z,6260
2022-12-17T08:47:49.672Z,6340
2022-12-17T08:48:53.395Z,6436
2022-12-17T08:49:55.536Z,6544
2022-12-17T08:50:57.682Z,6616
2022-12-17T08:52:00.736Z,6840
2022-12-17T08:53:02.944Z,7108
2022-12-17T08:54:06.268Z,7304
2022-12-17T08:55:09.424Z,7436
2022-12-17T08:56:12.132Z,7500
2022-12-17T08:57:26.969Z,7504
2022-12-17T08:58:35.430Z,7484
2022-12-17T08:59:38.217Z,7476
2022-12-17T09:00:41.430Z,7480
2022-12-17T09:01:45.666Z,7456
2022-12-17T09:02:49.899Z,7416
2022-12-17T09:03:53.281Z,7416
2022-12-17T09:04:56.415Z,7576
2022-12-17T09:05:59.396Z,7868
2022-12-17T09:07:02.167Z,8464
2022-12-17T09:08:05.011Z,9068
2022-12-17T09:09:08.242Z,9316
2022-12-17T09:10:11.080Z,9664
2022-12-17T09:11:14.687Z,10116
2022-12-17T09:12:17.837Z,10348
2022-12-17T09:13:20.409Z,10232
2022-12-17T09:14:23.817Z,10436
2022-12-17T09:15:26.236Z,10700
2022-12-17T09:16:29.304Z,10976
2022-12-17T09:17:33.563Z,10940
2022-12-17T09:18:36.268Z,10724
2022-12-17T09:19:38.689Z,13548
2022-12-17T09:20:41.178Z,10456
2022-12-17T09:21:44.156Z,10080
2022-12-17T09:22:47.089Z,10676
2022-12-17T09:23:50.012Z,10016
2022-12-17T09:24:53.146Z,8244
2022-12-17T09:25:58.187Z,9960
2022-12-17T09:27:01.383Z,7936
2022-12-17T09:28:04.821Z,7336
2022-12-17T09:29:08.234Z,7408
2022-12-17T09:30:10.935Z,7484
2022-12-17T09:31:13.853Z,7600
2022-12-17T09:32:17.599Z,9208
2022-12-17T09:33:21.701Z,7504
2022-12-17T09:34:24.396Z,7012
2022-12-17T09:35:27.370Z,7192
2022-12-17T09:36:30.219Z,7220
2022-12-17T09:37:33.540Z,18976
2022-12-17T09:38:36.250Z,53856
2022-12-17T09:39:39.307Z,57184
2022-12-17T09:40:41.732Z,57760
2022-12-17T09:41:43.947Z,59104
2022-12-17T09:42:51.039Z,58400
2022-12-17T09:44:03.188Z,59680
2022-12-17T09:45:05.669Z,60096
2022-12-17T09:46:08.418Z,48416
2022-12-17T09:47:10.695Z,19872
2022-12-17T09:48:13.559Z,21664
2022-12-17T09:49:17.934Z,18272
2022-12-17T09:50:20.777Z,18784
2022-12-17T09:51:24.032Z,18560
2022-12-17T09:52:27.087Z,20064
2022-12-17T09:53:30.142Z,17428
2022-12-17T09:54:33.295Z,15340
2022-12-17T09:55:36.066Z,14160
2022-12-17T09:56:38.484Z,13432
2022-12-17T09:57:41.251Z,13492
2022-12-17T09:58:44.299Z,14396
2022-12-17T09:59:47.034Z,15384
2022-12-17T10:00:49.536Z,16500
2022-12-17T10:02:02.424Z,19168
2022-12-17T10:03:06.134Z,17324
2022-12-17T10:04:09.976Z,17624
2022-12-17T10:05:14.637Z,14564
2022-12-17T10:06:22.308Z,15164
2022-12-17T10:07:25.845Z,15412
2022-12-17T10:08:28.908Z,21568
2022-12-17T10:09:32.346Z,32000
2022-12-17T10:10:35.057Z,38560
2022-12-17T10:11:37.781Z,57824
2022-12-17T10:12:40.857Z,73408
2022-12-17T10:13:43.626Z,74016
2022-12-17T10:14:46.476Z,72928
2022-12-17T10:15:48.940Z,70080
2022-12-17T10:16:52.169Z,68832
2022-12-17T10:17:55.175Z,66784
2022-12-17T10:18:58.618Z,67744
2022-12-17T10:20:01.784Z,65760
2022-12-17T10:21:06.014Z,61504
2022-12-17T10:22:08.958Z,62336
2022-12-17T10:23:12.378Z,62208
2022-12-17T10:24:18.523Z,63744
2022-12-17T10:25:21.112Z,63200
2022-12-17T10:26:23.528Z,63136
2022-12-17T10:27:26.009Z,61568
2022-12-17T10:28:29.071Z,60288
2022-12-17T10:29:32.201Z,64288
2022-12-17T10:30:34.976Z,65248
2022-12-17T10:31:37.504Z,67616
2022-12-17T10:32:41.044Z,67424
2022-12-17T10:33:43.822Z,68160
2022-12-17T10:34:46.895Z,69376
2022-12-17T10:35:49.663Z,71424
2022-12-17T10:36:53.559Z,70816
2022-12-17T10:37:56.912Z,69184
2022-12-17T10:38:59.611Z,70912
2022-12-17T10:40:02.382Z,70816
2022-12-17T10:41:05.362Z,66208
2022-12-17T10:42:08.057Z,65728
2022-12-17T10:43:11.058Z,63424
2022-12-17T10:44:13.756Z,64576
2022-12-17T10:45:16.801Z,65184
2022-12-17T10:46:19.628Z,65792
2022-12-17T10:47:23.064Z,63200
2022-12-17T10:48:25.764Z,64672
2022-12-17T10:49:28.734Z,66720
2022-12-17T10:50:31.711Z,70048
2022-12-17T10:51:34.223Z,71360
2022-12-17T10:52:38.404Z,71232
2022-12-17T10:53:41.722Z,70912
2022-12-17T10:54:48.926Z,70112
2022-12-17T10:55:52.620Z,71520
2022-12-17T10:56:55.963Z,71616
2022-12-17T10:57:59.046Z,71936
2022-12-17T10:59:01.945Z,71008
2022-12-17T11:00:04.823Z,72384
2022-12-17T11:01:07.413Z,71104
2022-12-17T11:02:11.534Z,71168
2022-12-17T11:03:15.806Z,72736
2022-12-17T11:04:19.112Z,72128
2022-12-17T11:05:21.257Z,71392
2022-12-17T11:06:24.514Z,72768
2022-12-17T11:07:27.596Z,69568
2022-12-17T11:08:31.789Z,66688
2022-12-17T11:09:35.607Z,65344
2022-12-17T11:10:38.594Z,66656
2022-12-17T11:11:41.292Z,68192
2022-12-17T11:12:44.625Z,66848
2022-12-17T11:13:47.605Z,69248
2022-12-17T11:14:50.530Z,69792
2022-12-17T11:15:53.241Z,70784
2022-12-17T11:16:56.004Z,73152
2022-12-17T11:17:59.346Z,74592
2022-12-17T11:19:02.035Z,75744
2022-12-17T11:20:04.189Z,76000
2022-12-17T11:21:06.886Z,74848
2022-12-17T11:22:10.223Z,75552
2022-12-17T11:23:13.378Z,74208
2022-12-17T11:24:22.146Z,71840
2022-12-17T11:25:25.761Z,71968
2022-12-17T11:26:28.803Z,70432
2022-12-17T11:27:31.283Z,69152
2022-12-17T11:28:34.083Z,69568
2022-12-17T11:29:36.924Z,68896
2022-12-17T11:30:39.740Z,66944
2022-12-17T11:31:42.309Z,66560
2022-12-17T11:32:45.812Z,65120
2022-12-17T11:33:48.308Z,64608
2022-12-17T11:34:51.662Z,64256
2022-12-17T11:35:54.811Z,65632
2022-12-17T11:36:57.233Z,66080
2022-12-17T11:37:59.666Z,66688
2022-12-17T11:39:01.911Z,66848
2022-12-17T11:40:06.389Z,67808
2022-12-17T11:41:08.960Z,67232
2022-12-17T11:42:12.288Z,67200
2022-12-17T11:43:14.784Z,66080
2022-12-17T11:44:17.205Z,65152
2022-12-17T11:45:20.542Z,65312
2022-12-17T11:46:22.838Z,64256
2022-12-17T11:47:26.719Z,61568
2022-12-17T11:48:29.982Z,61056
2022-12-17T11:49:32.956Z,61856
2022-12-17T11:50:35.934Z,62144
2022-12-17T11:51:38.913Z,62496
2022-12-17T11:52:42.243Z,62592
2022-12-17T11:53:45.294Z,63424
2022-12-17T11:54:48.142Z,64736
2022-12-17T11:55:52.316Z,65696
2022-12-17T11:56:55.088Z,65568
2022-12-17T11:57:57.795Z,63744
2022-12-17T11:59:00.012Z,64960
2022-12-17T12:00:04.453Z,64288
2022-12-17T12:01:07.131Z,61696
2022-12-17T12:02:10.184Z,60960
2022-12-17T12:03:13.011Z,62432
2022-12-17T12:04:15.751Z,62080
2022-12-17T12:05:19.135Z,60704
2022-12-17T12:06:21.920Z,60992
2022-12-17T12:07:24.056Z,60736
2022-12-17T12:08:26.273Z,60256
2022-12-17T12:09:29.957Z,61952
2022-12-17T12:10:33.594Z,62560
2022-12-17T12:11:37.479Z,61344
2022-12-17T12:12:40.637Z,60032
2022-12-17T12:13:43.974Z,60160
2022-12-17T12:14:46.744Z,59840
2022-12-17T12:15:49.840Z,58080
2022-12-17T12:16:53.727Z,59328
2022-12-17T12:17:57.173Z,57600
2022-12-17T12:19:00.887Z,55872
2022-12-17T12:20:03.423Z,55328
2022-12-17T12:21:05.378Z,53568
2022-12-17T12:22:08.089Z,51904
2022-12-17T12:23:12.173Z,49216
2022-12-17T12:24:14.588Z,47872
2022-12-17T12:25:17.947Z,47072
2022-12-17T12:26:20.636Z,46784
2022-12-17T12:27:24.879Z,46784
2022-12-17T12:28:27.853Z,47424
2022-12-17T12:29:30.625Z,47616
2022-12-17T12:30:33.418Z,47104
2022-12-17T12:31:36.270Z,44736
2022-12-17T12:32:39.841Z,35008
2022-12-17T12:33:42.621Z,23904
2022-12-17T12:34:45.445Z,18016
2022-12-17T12:35:48.608Z,18304
2022-12-17T12:36:51.752Z,17792
2022-12-17T12:37:55.076Z,15296
2022-12-17T12:38:58.933Z,14288
2022-12-17T12:40:02.684Z,13600
2022-12-17T12:41:05.457Z,11560
2022-12-17T12:42:07.945Z,10232
2022-12-17T12:43:12.034Z,11432
2022-12-17T12:44:14.726Z,11896
2022-12-17T12:45:17.574Z,12844
2022-12-17T12:46:19.587Z,13732
2022-12-17T12:47:22.140Z,14232
2022-12-17T12:48:24.995Z,13028
2022-12-17T12:49:28.641Z,9752
2022-12-17T12:50:31.559Z,10932
2022-12-17T12:51:34.617Z,11524
2022-12-17T12:52:37.056Z,11972
2022-12-17T12:53:40.106Z,11328
2022-12-17T12:54:43.464Z,9388
2022-12-17T12:55:46.784Z,10188
2022-12-17T12:56:49.200Z,11520
2022-12-17T12:57:52.046Z,10448
2022-12-17T12:58:56.185Z,10804
2022-12-17T12:59:59.845Z,13216
2022-12-17T13:01:02.382Z,12932
2022-12-17T13:02:06.460Z,11760
2022-12-17T13:03:10.319Z,10988
2022-12-17T13:04:13.762Z,9540
2022-12-17T13:05:17.745Z,8736
2022-12-17T13:06:19.892Z,9348
2022-12-17T13:07:23.324Z,9876
2022-12-17T13:08:26.304Z,9296
2022-12-17T13:09:34.066Z,8624
2022-12-17T13:10:38.053Z,8284
2022-12-17T13:11:41.206Z,7976
2022-12-17T13:12:44.355Z,7456
2022-12-17T13:13:46.837Z,7160
2022-12-17T13:14:51.048Z,6872
2022-12-17T13:15:54.038Z,6544
2022-12-17T13:16:57.151Z,6392
2022-12-17T13:18:00.259Z,6472
2022-12-17T13:19:02.958Z,6492
2022-12-17T13:20:05.839Z,6264
2022-12-17T13:21:09.233Z,6160
2022-12-17T13:22:12.488Z,6268
2022-12-17T13:23:25.766Z,6168
2022-12-17T13:24:29.094Z,6144
2022-12-17T13:25:32.163Z,5968
2022-12-17T13:26:34.865Z,6180
2022-12-17T13:27:37.566Z,5944
2022-12-17T13:28:41.387Z,5480
2022-12-17T13:29:44.758Z,5604
2022-12-17T13:30:49.367Z,5540
2022-12-17T13:31:52.110Z,5388
2022-12-17T13:32:55.618Z,5388
2022-12-17T13:33:59.682Z,5312
2022-12-17T13:35:07.021Z,5304
2022-12-17T13:36:12.741Z,5192
2022-12-17T13:37:16.168Z,5028
2022-12-17T13:38:19.410Z,5064
2022-12-17T13:39:22.476Z,5080
2022-12-17T13:40:25.724Z,4968
2022-12-17T13:41:28.906Z,4820
2022-12-17T13:42:32.341Z,4712
2022-12-17T13:43:35.600Z,4640
2022-12-17T13:44:38.956Z,4552
2022-12-17T13:45:41.776Z,4480
2022-12-17T13:46:47.453Z,4460
2022-12-17T13:47:51.538Z,4316
2022-12-17T13:48:54.686Z,4296
2022-12-17T13:50:32.048Z,4268
2022-12-17T13:51:39.500Z,4088
2022-12-17T13:52:42.626Z,4012
2022-12-17T13:53:45.991Z,4012
2022-12-17T13:54:49.078Z,3968
2022-12-17T13:55:51.844Z,3960
2022-12-17T13:56:54.824Z,3860
2022-12-17T13:57:58.543Z,3740
2022-12-17T13:59:06.399Z,3616
2022-12-17T14:00:11.899Z,3576
2022-12-17T14:01:15.057Z,3532
2022-12-17T14:02:20.520Z,3488
2022-12-17T14:03:37.342Z,3416
2022-12-17T14:05:11.542Z,3308
2022-12-17T14:06:14.662Z,3300
2022-12-17T14:07:17.742Z,3144
2022-12-17T14:08:20.246Z,3172
2022-12-17T14:09:23.505Z,3088
2022-12-17T14:10:26.357Z,3004
2022-12-17T14:11:28.667Z,2864
2022-12-17T14:12:31.097Z,2816
2022-12-17T14:13:34.532Z,2728
2022-12-17T14:14:37.945Z,2664
2022-12-17T14:15:41.376Z,2580
2022-12-17T14:16:47.515Z,2508
2022-12-17T14:17:55.217Z,2452
2022-12-17T14:18:58.272Z,2368
2022-12-17T14:20:01.602Z,2308
2022-12-17T14:21:04.934Z,2236
2022-12-17T14:22:07.648Z,2184
2022-12-17T14:23:11.107Z,2108
2022-12-17T14:24:14.056Z,2044
2022-12-17T14:25:16.687Z,1984
2022-12-17T14:26:19.293Z,1920
2022-12-17T14:27:22.345Z,1852
2022-12-17T14:28:25.194Z,1784
2022-12-17T14:29:28.315Z,1720
2022-12-17T14:30:31.703Z,1660
2022-12-17T14:31:34.757Z,1600
2022-12-17T14:32:37.446Z,1540
2022-12-17T14:33:41.595Z,1480
2022-12-17T14:34:43.745Z,1412
2022-12-17T14:35:46.760Z,1360
2022-12-17T14:36:50.184Z,1304
2022-12-17T14:37:54.090Z,1240
2022-12-17T14:38:59.647Z,1184
2022-12-17T14:40:02.521Z,1128